createdAt,value
2017-12-19T00:01:04.541Z,9.27
2017-12-19T00:03:39.304Z,8.27
2017-12-19T00:06:14.160Z,8.70
2017-12-19T00:08:48.408Z,9.70
2017-12-19T00:11:22.308Z,9.80
2017-12-19T00:13:56.601Z,9.57
2017-12-19T00:16:31.521Z,10.65
2017-12-19T00:19:05.330Z,9.02
2017-12-19T00:21:39.722Z,9.98
2017-12-19T00:24:14.379Z,9.30
2017-12-19T00:26:49.928Z,9.98
2017-12-19T00:29:25.164Z,9.82
2017-12-19T00:32:00.013Z,10.05
2017-12-19T00:34:34.099Z,9.88
2017-12-19T00:37:08.386Z,7.80
2017-12-19T00:39:42.668Z,8.18
2017-12-19T00:42:17.816Z,9.15
2017-12-19T00:44:52.330Z,9.10
2017-12-19T00:47:26.346Z,9.45
2017-12-19T00:50:00.645Z,9.75
2017-12-19T00:52:34.501Z,10.73
2017-12-19T00:55:08.899Z,9.75
2017-12-19T00:57:43.162Z,10.45
2017-12-19T01:00:18.170Z,8.45
2017-12-19T01:02:52.802Z,9.00
2017-12-19T01:05:26.740Z,8.38
2017-12-19T01:08:01.018Z,10.38
2017-12-19T01:10:35.216Z,9.30
2017-12-19T01:13:10.643Z,9.85
2017-12-19T01:15:44.829Z,9.32
2017-12-19T01:18:19.194Z,8.30
2017-12-19T01:20:53.436Z,9.25
2017-12-19T01:23:27.587Z,9.38
2017-12-19T01:26:02.451Z,9.10
2017-12-19T01:28:36.258Z,7.65
2017-12-19T01:31:10.349Z,8.60
2017-12-19T01:33:47.180Z,7.60
2017-12-19T01:36:22.080Z,9.20
2017-12-19T01:38:56.155Z,9.55
2017-12-19T01:41:31.005Z,9.35
2017-12-19T01:44:06.094Z,8.55
2017-12-19T01:46:39.694Z,7.93
2017-12-19T01:49:13.973Z,8.10
2017-12-19T01:51:47.982Z,8.30
2017-12-19T01:54:23.450Z,7.22
2017-12-19T01:56:57.960Z,7.87
2017-12-19T01:59:32.389Z,7.60
2017-12-19T02:02:06.531Z,7.95
2017-12-19T02:04:40.676Z,8.55
2017-12-19T02:07:15.530Z,6.68
2017-12-19T02:09:49.269Z,7.75
2017-12-19T02:12:24.355Z,8.68
2017-12-19T02:14:58.385Z,7.37
2017-12-19T02:17:32.156Z,7.65
2017-12-19T02:20:06.105Z,8.82
2017-12-19T02:22:41.651Z,8.13
2017-12-19T02:25:15.823Z,7.85
2017-12-19T02:27:49.810Z,8.38
2017-12-19T02:30:24.316Z,8.27
2017-12-19T02:32:58.681Z,8.55
2017-12-19T02:35:33.350Z,8.32
2017-12-19T02:38:07.290Z,8.80
2017-12-19T02:40:41.510Z,8.57
2017-12-19T02:43:20.938Z,9.10
2017-12-19T02:45:56.434Z,9.82
2017-12-19T02:48:33.071Z,8.45
2017-12-19T02:51:08.064Z,8.70
2017-12-19T02:53:43.063Z,10.13
2017-12-19T02:56:18.793Z,9.43
2017-12-19T02:58:53.180Z,10.20
2017-12-19T03:01:26.997Z,9.65
2017-12-19T03:04:00.878Z,11.00
2017-12-19T03:06:35.296Z,9.48
2017-12-19T03:09:10.161Z,10.23
2017-12-19T03:11:44.084Z,10.57
2017-12-19T03:14:18.797Z,10.95
2017-12-19T03:16:52.666Z,11.30
2017-12-19T03:19:27.045Z,9.45
2017-12-19T03:22:01.131Z,11.27
2017-12-19T03:24:35.276Z,11.12
2017-12-19T03:27:09.203Z,10.20
2017-12-19T03:29:43.554Z,10.43
2017-12-19T03:32:17.714Z,9.90
2017-12-19T03:34:51.677Z,10.88
2017-12-19T03:37:26.298Z,11.18
2017-12-19T03:40:00.453Z,11.43
2017-12-19T03:42:34.603Z,10.60
2017-12-19T03:45:09.318Z,10.50
2017-12-19T03:47:44.494Z,11.18
2017-12-19T03:50:19.709Z,10.55
2017-12-19T03:52:53.595Z,11.18
2017-12-19T03:55:29.363Z,10.18
2017-12-19T03:58:04.267Z,11.43
2017-12-19T04:00:38.889Z,11.05
2017-12-19T04:03:14.844Z,10.45
2017-12-19T04:05:49.066Z,10.98
2017-12-19T04:08:23.624Z,11.38
2017-12-19T04:10:57.836Z,10.73
2017-12-19T04:13:31.591Z,10.88
2017-12-19T04:16:05.735Z,11.50
2017-12-19T04:18:40.650Z,10.93
2017-12-19T04:21:15.605Z,11.02
2017-12-19T04:23:50.535Z,10.95
2017-12-19T04:26:24.651Z,10.70
2017-12-19T04:28:58.897Z,10.02
2017-12-19T04:31:33.904Z,12.75
2017-12-19T04:34:08.744Z,12.20
2017-12-19T04:36:43.938Z,12.57
2017-12-19T04:39:19.527Z,11.25
2017-12-19T04:41:53.765Z,12.02
2017-12-19T04:44:29.142Z,10.98
2017-12-19T04:47:03.846Z,11.95
2017-12-19T04:49:38.059Z,11.40
2017-12-19T04:52:12.139Z,12.45
2017-12-19T04:54:46.432Z,11.25
2017-12-19T04:57:20.203Z,11.43
2017-12-19T04:59:55.139Z,11.27
2017-12-19T05:02:29.512Z,12.20
2017-12-19T05:05:03.161Z,12.10
2017-12-19T05:07:37.887Z,16.58
2017-12-19T05:10:12.323Z,15.48
2017-12-19T05:12:47.158Z,12.40
2017-12-19T05:15:21.677Z,12.37
2017-12-19T05:17:55.936Z,10.30
2017-12-19T05:20:30.666Z,11.35
2017-12-19T05:23:05.384Z,11.57
2017-12-19T05:25:39.537Z,11.10
2017-12-19T05:28:13.656Z,11.80
2017-12-19T05:30:47.543Z,11.40
2017-12-19T05:33:21.651Z,10.65
2017-12-19T05:35:56.558Z,10.65
2017-12-19T05:38:31.261Z,10.63
2017-12-19T05:41:05.428Z,11.80
2017-12-19T05:43:39.578Z,11.40
2017-12-19T05:46:13.765Z,11.88
2017-12-19T05:48:48.103Z,11.30
2017-12-19T05:51:22.220Z,11.75
2017-12-19T05:53:57.132Z,12.00
2017-12-19T05:56:31.051Z,12.18
2017-12-19T05:59:05.320Z,11.63
2017-12-19T06:01:40.925Z,12.25
2017-12-19T06:04:15.298Z,11.35
2017-12-19T06:06:49.294Z,11.30
2017-12-19T06:09:23.200Z,12.10
2017-12-19T06:11:57.917Z,12.00
2017-12-19T06:14:31.731Z,11.50
2017-12-19T06:17:05.864Z,12.23
2017-12-19T06:19:41.628Z,13.68
2017-12-19T06:22:15.943Z,12.52
2017-12-19T06:24:50.870Z,12.37
2017-12-19T06:27:24.714Z,14.00
2017-12-19T06:29:58.625Z,14.77
2017-12-19T06:32:32.541Z,13.40
2017-12-19T06:35:06.655Z,12.32
2017-12-19T06:37:41.548Z,13.88
2017-12-19T06:40:18.746Z,14.48
2017-12-19T06:42:53.004Z,13.60
2017-12-19T06:45:27.220Z,14.98
2017-12-19T06:48:02.088Z,15.20
2017-12-19T06:50:36.531Z,17.45
2017-12-19T06:53:11.836Z,15.63
2017-12-19T06:55:45.756Z,14.85
2017-12-19T06:58:20.485Z,15.25
2017-12-19T07:00:55.430Z,17.65
2017-12-19T07:03:30.528Z,14.90
2017-12-19T07:06:04.739Z,18.05
2017-12-19T07:08:40.346Z,18.77
2017-12-19T07:11:15.648Z,16.35
2017-12-19T07:13:50.003Z,18.00
2017-12-19T07:16:24.287Z,16.33
2017-12-19T07:18:58.499Z,16.98
2017-12-19T07:21:33.495Z,20.83
2017-12-19T07:24:07.318Z,18.92
2017-12-19T07:26:42.768Z,18.45
2017-12-19T07:29:16.736Z,16.10
2017-12-19T07:31:51.505Z,16.05
2017-12-19T07:34:26.473Z,16.83
2017-12-19T07:37:00.756Z,16.15
2017-12-19T07:39:36.031Z,17.95
2017-12-19T07:42:11.363Z,17.05
2017-12-19T07:44:45.284Z,16.70
2017-12-19T07:47:20.260Z,17.17
2017-12-19T07:49:54.155Z,53.67
2017-12-19T07:52:28.255Z,25.92
2017-12-19T07:55:03.875Z,20.00
2017-12-19T08:02:12.474Z,17.12
2017-12-19T08:04:46.826Z,17.10
2017-12-19T08:07:21.748Z,17.55
2017-12-19T08:09:56.324Z,18.80
2017-12-19T08:12:31.388Z,18.67
2017-12-19T08:15:05.545Z,18.52
2017-12-19T08:17:39.768Z,16.95
2017-12-19T08:20:13.931Z,15.00
2017-12-19T08:22:49.964Z,15.68
2017-12-19T08:25:24.190Z,14.45
2017-12-19T08:27:59.163Z,15.65
2017-12-19T08:30:33.126Z,16.45
2017-12-19T08:33:07.596Z,15.27
2017-12-19T08:35:41.731Z,15.80
2017-12-19T08:38:17.007Z,14.80
2017-12-19T08:40:51.969Z,15.52
2017-12-19T08:43:25.994Z,19.60
2017-12-19T08:46:00.228Z,32.13
2017-12-19T08:48:34.271Z,15.30
2017-12-19T08:51:08.450Z,14.00
2017-12-19T08:53:43.003Z,13.15
2017-12-19T08:56:19.191Z,13.23
2017-12-19T08:58:53.261Z,17.25
2017-12-19T09:01:27.305Z,12.18
2017-12-19T09:04:01.267Z,13.82
2017-12-19T09:06:35.665Z,15.82
2017-12-19T09:09:09.895Z,14.38
2017-12-19T09:11:44.500Z,25.85
2017-12-19T09:14:18.948Z,15.65
2017-12-19T09:16:53.237Z,12.75
2017-12-19T09:19:28.079Z,25.75
2017-12-19T09:22:02.998Z,18.23
2017-12-19T09:24:37.108Z,20.90
2017-12-19T09:27:10.997Z,25.55
2017-12-19T09:29:45.308Z,20.52
2017-12-19T09:32:19.464Z,15.90
2017-12-19T09:34:53.366Z,16.10
2017-12-19T09:37:27.580Z,14.05
2017-12-19T09:40:02.661Z,19.37
2017-12-19T09:42:36.798Z,21.55
2017-12-19T09:45:11.694Z,11.88
2017-12-19T09:47:45.820Z,23.60
2017-12-19T09:50:19.925Z,16.17
2017-12-19T09:52:54.147Z,11.07
2017-12-19T09:55:28.371Z,11.60
2017-12-19T09:58:02.571Z,11.15
2017-12-19T10:00:36.754Z,10.40
2017-12-19T10:03:11.531Z,13.32
2017-12-19T10:05:45.696Z,15.18
2017-12-19T10:08:19.507Z,18.10
2017-12-19T10:10:53.783Z,17.80
2017-12-19T10:13:27.837Z,16.02
2017-12-19T10:16:01.658Z,12.98
2017-12-19T10:18:35.623Z,11.88
2017-12-19T10:21:09.756Z,12.55
2017-12-19T10:23:43.899Z,11.50
2017-12-19T10:26:18.732Z,12.80
2017-12-19T10:28:53.699Z,11.52
2017-12-19T10:31:28.367Z,11.95
2017-12-19T10:34:02.651Z,11.00
2017-12-19T10:36:37.234Z,11.50
2017-12-19T10:39:11.222Z,10.43
2017-12-19T10:41:46.278Z,10.43
2017-12-19T10:44:20.336Z,10.10
2017-12-19T10:46:54.571Z,8.40
2017-12-19T10:49:28.707Z,9.57
2017-12-19T10:52:03.205Z,9.82
2017-12-19T10:54:37.989Z,10.55
2017-12-19T10:57:12.397Z,9.75
2017-12-19T10:59:46.269Z,11.02
2017-12-19T11:02:20.817Z,11.27
2017-12-19T11:04:55.618Z,11.63
2017-12-19T11:07:29.532Z,9.45
2017-12-19T11:10:05.296Z,10.95
2017-12-19T11:12:40.080Z,11.25
2017-12-19T11:15:14.106Z,10.57
2017-12-19T11:17:48.131Z,10.15
2017-12-19T11:20:22.709Z,10.40
2017-12-19T11:22:57.393Z,11.38
2017-12-19T11:25:32.398Z,9.32
2017-12-19T11:28:06.589Z,9.35
2017-12-19T11:30:40.698Z,10.82
2017-12-19T11:33:15.795Z,10.18
2017-12-19T11:35:50.227Z,9.55
2017-12-19T11:38:24.473Z,8.68
2017-12-19T11:41:00.479Z,9.10
2017-12-19T11:43:35.225Z,9.02
2017-12-19T11:46:09.708Z,9.98
2017-12-19T11:48:43.675Z,8.10
2017-12-19T11:51:17.733Z,8.55
2017-12-19T11:53:52.572Z,9.23
2017-12-19T11:56:26.955Z,15.43
2017-12-19T11:59:00.898Z,10.52
2017-12-19T12:01:36.432Z,8.70
2017-12-19T12:04:11.563Z,9.00
2017-12-19T12:06:47.593Z,12.88
2017-12-19T12:09:22.218Z,8.60
2017-12-19T12:11:56.568Z,9.63
2017-12-19T12:14:30.825Z,10.40
2017-12-19T12:17:05.361Z,9.55
2017-12-19T12:19:39.913Z,9.20
2017-12-19T12:22:15.999Z,10.00
2017-12-19T12:24:50.167Z,8.88
2017-12-19T12:27:24.014Z,9.30
2017-12-19T12:29:58.171Z,8.48
2017-12-19T12:32:32.604Z,9.85
2017-12-19T12:35:06.634Z,8.95
2017-12-19T12:37:41.462Z,9.32
2017-12-19T12:40:15.281Z,8.55
2017-12-19T12:42:49.242Z,10.75
2017-12-19T12:45:23.146Z,8.20
2017-12-19T12:47:57.302Z,7.72
2017-12-19T12:50:31.443Z,8.15
2017-12-19T12:53:05.892Z,7.97
2017-12-19T12:55:41.438Z,7.97
2017-12-19T12:58:15.738Z,7.40
2017-12-19T13:00:49.986Z,10.65
2017-12-19T13:03:24.451Z,8.88
2017-12-19T13:05:58.796Z,9.27
2017-12-19T13:08:32.955Z,27.42
2017-12-19T13:11:08.941Z,11.85
2017-12-19T13:13:43.679Z,9.82
2017-12-19T13:16:17.853Z,8.18
2017-12-19T13:18:54.123Z,8.80
2017-12-19T13:21:28.391Z,9.05
2017-12-19T13:24:03.246Z,9.38
2017-12-19T13:26:38.493Z,9.13
2017-12-19T13:29:13.565Z,9.30
2017-12-19T13:31:48.477Z,9.85
2017-12-19T13:34:22.448Z,10.25
2017-12-19T13:36:57.342Z,11.10
2017-12-19T13:39:32.010Z,8.02
2017-12-19T13:42:05.925Z,7.97
2017-12-19T13:44:39.993Z,9.05
2017-12-19T13:47:14.036Z,6.80
2017-12-19T13:49:48.251Z,6.40
2017-12-19T13:52:22.502Z,7.65
2017-12-19T13:54:57.163Z,7.75
2017-12-19T13:57:31.381Z,11.68
2017-12-19T14:00:05.783Z,11.77
2017-12-19T14:02:39.955Z,7.50
2017-12-19T14:05:14.675Z,7.03
2017-12-19T14:07:48.564Z,34.20
2017-12-19T14:10:22.320Z,8.35
2017-12-19T14:12:56.886Z,6.80
2017-12-19T14:15:31.153Z,6.57
2017-12-19T14:18:05.577Z,6.30
2017-12-19T14:20:40.498Z,8.80
2017-12-19T14:23:14.846Z,8.68
2017-12-19T14:25:49.249Z,8.55
2017-12-19T14:28:23.316Z,9.25
2017-12-19T14:30:57.957Z,8.90
2017-12-19T14:33:32.084Z,8.77
2017-12-19T14:36:06.422Z,8.52
2017-12-19T14:38:40.568Z,8.90
2017-12-19T14:41:14.715Z,9.20
2017-12-19T14:43:49.893Z,9.48
2017-12-19T14:46:24.437Z,11.82
2017-12-19T14:48:58.646Z,10.40
2017-12-19T14:51:32.970Z,11.57
2017-12-19T14:54:07.383Z,11.18
2017-12-19T14:56:42.275Z,10.57
2017-12-19T14:59:16.437Z,11.75
2017-12-19T15:01:50.728Z,12.60
2017-12-19T15:04:24.764Z,12.98
2017-12-19T15:06:58.735Z,13.88
2017-12-19T15:09:32.534Z,12.45
2017-12-19T15:12:07.145Z,12.93
2017-12-19T15:14:40.907Z,25.45
2017-12-19T15:17:14.952Z,63.35
2017-12-19T15:19:48.926Z,39.15
2017-12-19T15:22:23.315Z,37.92
2017-12-19T15:24:57.317Z,27.10
2017-12-19T15:27:31.470Z,15.52
2017-12-19T15:30:06.358Z,12.27
2017-12-19T15:32:41.295Z,13.40
2017-12-19T15:35:15.526Z,13.75
2017-12-19T15:37:49.237Z,12.20
2017-12-19T15:40:23.381Z,11.82
2017-12-19T15:42:57.656Z,11.57
2017-12-19T15:45:31.434Z,11.40
2017-12-19T15:48:05.641Z,11.15
2017-12-19T15:50:39.572Z,14.00
2017-12-19T15:53:13.587Z,13.25
2017-12-19T15:55:48.249Z,13.38
2017-12-19T15:58:23.048Z,14.32
2017-12-19T16:00:57.114Z,15.57
2017-12-19T16:03:30.974Z,16.20
2017-12-19T16:06:05.053Z,18.70
2017-12-19T16:08:40.933Z,15.70
2017-12-19T16:11:15.146Z,12.63
2017-12-19T16:13:49.222Z,13.65
2017-12-19T16:16:23.336Z,10.75
2017-12-19T16:18:57.958Z,13.55
2017-12-19T16:21:31.806Z,12.05
2017-12-19T16:24:06.097Z,21.70
2017-12-19T16:26:40.084Z,15.25
2017-12-19T16:29:14.271Z,11.95
2017-12-19T16:31:48.120Z,14.82
2017-12-19T16:34:21.993Z,13.55
2017-12-19T16:36:56.051Z,29.40
2017-12-19T16:39:31.288Z,27.00
2017-12-19T16:42:05.247Z,23.98
2017-12-19T16:44:39.516Z,24.37
2017-12-19T16:47:13.351Z,28.87
2017-12-19T16:49:48.417Z,27.52
2017-12-19T16:52:23.208Z,57.50
2017-12-19T16:54:57.142Z,23.12
2017-12-19T16:57:32.099Z,22.23
2017-12-19T17:00:06.348Z,25.20
2017-12-19T17:02:40.423Z,16.65
2017-12-19T17:05:15.377Z,13.85
2017-12-19T17:07:49.582Z,14.48
2017-12-19T17:10:23.916Z,13.57
2017-12-19T17:12:58.028Z,12.45
2017-12-19T17:15:32.119Z,12.50
2017-12-19T17:18:06.131Z,13.98
2017-12-19T17:20:39.965Z,12.85
2017-12-19T17:23:13.942Z,10.32
2017-12-19T17:25:48.078Z,9.05
2017-12-19T17:28:22.854Z,10.52
2017-12-19T17:30:56.769Z,11.82
2017-12-19T17:33:32.543Z,11.77
2017-12-19T17:36:06.510Z,15.63
2017-12-19T17:38:40.773Z,14.10
2017-12-19T17:41:15.448Z,12.05
2017-12-19T17:43:49.317Z,14.63
2017-12-19T17:46:23.839Z,14.80
2017-12-19T17:48:57.553Z,12.52
2017-12-19T17:51:31.313Z,10.82
2017-12-19T17:54:04.987Z,9.63
2017-12-19T17:56:38.837Z,16.85
2017-12-19T17:59:12.795Z,13.43
2017-12-19T18:01:46.775Z,11.20
2017-12-19T18:04:20.522Z,9.50
2017-12-19T18:06:54.387Z,12.07
2017-12-19T18:09:28.039Z,8.52
2017-12-19T18:12:01.871Z,9.40
2017-12-19T18:14:35.608Z,9.80
2017-12-19T18:17:09.388Z,9.95
2017-12-19T18:19:43.301Z,10.80
2017-12-19T18:22:17.780Z,10.60
2017-12-19T18:24:51.637Z,11.48
2017-12-19T18:27:26.181Z,10.38
2017-12-19T18:30:00.025Z,11.18
2017-12-19T18:32:33.695Z,12.30
2017-12-19T18:35:07.454Z,9.90
2017-12-19T18:37:41.900Z,14.02
2017-12-19T18:40:15.503Z,17.55
2017-12-19T18:42:49.170Z,15.38
2017-12-19T18:45:22.928Z,16.35
2017-12-19T18:47:57.310Z,13.45
2017-12-19T18:50:30.893Z,12.73
2017-12-19T18:53:04.653Z,10.07
2017-12-19T18:55:38.914Z,9.70
2017-12-19T18:58:12.601Z,26.58
2017-12-19T19:00:46.414Z,15.65
2017-12-19T19:03:19.965Z,11.23
2017-12-19T19:05:53.493Z,11.95
2017-12-19T19:08:27.196Z,11.90
2017-12-19T19:11:00.755Z,11.05
2017-12-19T19:13:34.363Z,10.45
2017-12-19T19:16:07.918Z,11.73
2017-12-19T19:18:41.487Z,13.32
2017-12-19T19:21:15.378Z,11.80
2017-12-19T19:23:48.989Z,13.55
2017-12-19T19:26:22.582Z,27.00
2017-12-19T19:28:56.383Z,17.15
2017-12-19T19:31:30.217Z,13.40
2017-12-19T19:34:03.868Z,13.02
2017-12-19T19:36:37.604Z,16.08
2017-12-19T19:39:11.467Z,11.95
2017-12-19T19:41:45.232Z,14.52
2017-12-19T19:44:19.032Z,18.77
2017-12-19T19:46:53.616Z,14.60
2017-12-19T19:49:27.529Z,13.18
2017-12-19T19:52:01.267Z,25.92
2017-12-19T19:54:34.960Z,15.70
2017-12-19T19:57:08.750Z,15.25
2017-12-19T19:59:42.402Z,15.93
2017-12-19T20:02:16.158Z,14.90
2017-12-19T20:04:50.748Z,19.77
2017-12-19T20:07:24.396Z,23.60
2017-12-19T20:09:57.998Z,21.52
2017-12-19T20:12:31.828Z,17.98
2017-12-19T20:15:05.604Z,15.63
2017-12-19T20:17:39.313Z,29.75
2017-12-19T20:20:13.133Z,32.38
2017-12-19T20:22:46.790Z,22.92
2017-12-19T20:25:20.389Z,20.60
2017-12-19T20:27:54.101Z,25.10
2017-12-19T20:30:27.749Z,17.30
2017-12-19T20:33:02.341Z,11.18
2017-12-19T20:35:36.059Z,32.33
2017-12-19T20:38:10.574Z,42.85
2017-12-19T20:40:44.356Z,32.75
2017-12-19T20:43:18.181Z,39.35
2017-12-19T20:45:51.778Z,27.08
2017-12-19T20:48:25.509Z,34.90
2017-12-19T20:50:59.957Z,35.10
2017-12-19T20:53:33.524Z,33.90
2017-12-19T20:56:13.169Z,31.33
2017-12-19T20:58:46.726Z,37.08
2017-12-19T21:01:20.340Z,37.22
2017-12-19T21:03:54.132Z,22.73
2017-12-19T21:06:27.718Z,50.28
2017-12-19T21:09:01.428Z,18.10
2017-12-19T21:11:35.099Z,22.27
2017-12-19T21:14:08.732Z,17.73
2017-12-19T21:16:42.486Z,18.10
2017-12-19T21:19:16.232Z,15.55
2017-12-19T21:21:49.884Z,15.55
2017-12-19T21:24:23.647Z,16.35
2017-12-19T21:26:57.310Z,18.10
2017-12-19T21:29:31.034Z,16.77
2017-12-19T21:32:04.665Z,16.52
2017-12-19T21:34:38.494Z,18.67
2017-12-19T21:37:12.313Z,20.80
2017-12-19T21:39:45.973Z,17.25
2017-12-19T21:42:19.639Z,18.05
2017-12-19T21:44:54.197Z,20.42
2017-12-19T21:47:30.712Z,17.12
2017-12-19T21:50:05.660Z,17.98
2017-12-19T21:52:39.477Z,14.98
2017-12-19T21:55:14.818Z,20.05
2017-12-19T21:57:51.936Z,18.00
2017-12-19T22:00:25.780Z,19.70
2017-12-19T22:02:59.447Z,16.15
2017-12-19T22:05:35.658Z,17.85
2017-12-19T22:08:09.601Z,18.48
2017-12-19T22:10:43.524Z,18.77
2017-12-19T22:13:17.236Z,17.35
2017-12-19T22:15:51.868Z,19.27
2017-12-19T22:18:25.540Z,18.42
2017-12-19T22:21:00.360Z,19.37
2017-12-19T22:23:35.007Z,17.23
2017-12-19T22:26:10.196Z,18.25
2017-12-19T22:28:46.371Z,17.15
2017-12-19T22:31:21.822Z,17.05
2017-12-19T22:33:55.618Z,16.50
2017-12-19T22:36:30.335Z,16.08
2017-12-19T22:39:04.814Z,17.20
2017-12-19T22:41:38.979Z,16.05
2017-12-19T22:44:15.556Z,16.23
2017-12-19T22:46:49.330Z,15.52
2017-12-19T22:49:22.926Z,16.15
2017-12-19T22:51:59.106Z,14.95
2017-12-19T22:54:32.688Z,15.45
2017-12-19T22:57:06.492Z,15.65
2017-12-19T22:59:40.132Z,16.00
2017-12-19T23:02:13.827Z,14.77
2017-12-19T23:04:47.419Z,14.20
2017-12-19T23:07:21.099Z,15.02
2017-12-19T23:09:54.842Z,16.87
2017-12-19T23:12:29.147Z,16.83
2017-12-19T23:15:02.803Z,14.90
2017-12-19T23:17:36.473Z,15.48
2017-12-19T23:20:10.091Z,16.17
2017-12-19T23:22:43.814Z,14.77
2017-12-19T23:25:18.274Z,15.00
2017-12-19T23:27:52.754Z,15.38
2017-12-19T23:30:26.478Z,15.20
2017-12-19T23:33:00.138Z,14.73
2017-12-19T23:35:33.855Z,15.65
2017-12-19T23:38:07.543Z,14.35
2017-12-19T23:40:41.284Z,16.20
2017-12-19T23:43:15.501Z,16.80
2017-12-19T23:45:49.158Z,15.68
2017-12-19T23:48:22.827Z,15.93
2017-12-19T23:50:56.567Z,15.15
2017-12-19T23:53:30.233Z,15.70
2017-12-19T23:56:03.874Z,14.38
2017-12-19T23:58:37.427Z,15.25
